createdAt,value
2017-05-29T00:02:22.409Z,16.10
2017-05-29T00:04:50.743Z,16.30
2017-05-29T00:07:19.089Z,16.40
2017-05-29T00:09:47.384Z,16.50
2017-05-29T00:12:15.706Z,16.60
2017-05-29T00:14:44.006Z,16.70
2017-05-29T00:17:12.343Z,16.60
2017-05-29T00:19:40.668Z,16.60
2017-05-29T00:22:08.966Z,16.50
2017-05-29T00:24:37.277Z,16.50
2017-05-29T00:27:05.575Z,16.50
2017-05-29T00:29:33.897Z,16.50
2017-05-29T00:32:02.195Z,16.50
2017-05-29T00:34:30.539Z,16.50
2017-05-29T00:36:58.835Z,16.60
2017-05-29T00:39:27.145Z,16.60
2017-05-29T00:41:55.463Z,16.50
2017-05-29T00:44:23.759Z,16.30
2017-05-29T00:46:52.075Z,16.30
2017-05-29T00:49:21.183Z,16.20
2017-05-29T00:51:49.507Z,16.20
2017-05-29T00:54:17.803Z,16.30
2017-05-29T00:56:46.100Z,16.30
2017-05-29T00:59:14.406Z,16.10
2017-05-29T01:01:42.704Z,15.80
2017-05-29T01:04:11.020Z,15.70
2017-05-29T01:06:39.323Z,15.80
2017-05-29T01:09:07.664Z,15.80
2017-05-29T01:11:35.960Z,15.80
2017-05-29T01:14:04.251Z,15.80
2017-05-29T01:16:32.567Z,15.70
2017-05-29T01:19:00.877Z,15.70
2017-05-29T01:21:29.201Z,15.60
2017-05-29T01:23:57.499Z,15.60
2017-05-29T01:26:25.821Z,15.60
2017-05-29T01:28:54.121Z,15.50
2017-05-29T01:31:22.419Z,15.50
2017-05-29T01:33:50.737Z,15.50
2017-05-29T01:36:19.040Z,15.60
2017-05-29T01:38:47.356Z,15.70
2017-05-29T01:41:15.658Z,15.80
2017-05-29T01:43:43.993Z,15.80
2017-05-29T01:46:12.287Z,15.80
2017-05-29T01:48:40.587Z,15.80
2017-05-29T01:51:08.904Z,15.80
2017-05-29T01:53:37.195Z,15.80
2017-05-29T01:56:05.522Z,15.80
2017-05-29T01:58:33.820Z,15.80
2017-05-29T02:01:02.168Z,15.60
2017-05-29T02:03:30.468Z,15.40
2017-05-29T02:05:58.771Z,15.40
2017-05-29T02:08:27.090Z,15.40
2017-05-29T02:10:55.384Z,15.50
2017-05-29T02:13:23.711Z,15.50
2017-05-29T02:15:52.015Z,15.60
2017-05-29T02:18:20.359Z,15.50
2017-05-29T02:20:48.658Z,15.50
2017-05-29T02:23:16.959Z,15.50
2017-05-29T02:25:45.275Z,15.40
2017-05-29T02:28:13.575Z,15.40
2017-05-29T02:30:41.890Z,15.50
2017-05-29T02:33:10.186Z,15.50
2017-05-29T02:35:38.527Z,15.50
2017-05-29T02:38:06.826Z,15.50
2017-05-29T02:40:35.128Z,15.50
2017-05-29T02:43:03.717Z,15.40
2017-05-29T02:45:32.013Z,15.40
2017-05-29T02:48:00.331Z,15.40
2017-05-29T02:50:28.631Z,15.50
2017-05-29T02:52:56.971Z,15.50
2017-05-29T02:55:25.273Z,15.50
2017-05-29T02:57:53.566Z,15.50
2017-05-29T03:00:21.883Z,15.50
2017-05-29T03:02:50.181Z,15.50
2017-05-29T03:05:18.501Z,15.70
2017-05-29T03:07:46.807Z,15.70
2017-05-29T03:10:15.147Z,15.80
2017-05-29T03:12:43.474Z,15.90
2017-05-29T03:15:11.773Z,16.00
2017-05-29T03:17:40.097Z,16.10
2017-05-29T03:20:08.402Z,16.00
2017-05-29T03:22:36.723Z,15.90
2017-05-29T03:25:05.023Z,15.80
2017-05-29T03:27:33.346Z,15.80
2017-05-29T03:30:01.652Z,15.90
2017-05-29T03:32:29.951Z,16.00
2017-05-29T03:34:58.268Z,16.10
2017-05-29T03:37:26.572Z,16.10
2017-05-29T03:39:54.892Z,16.00
2017-05-29T03:42:23.192Z,16.00
2017-05-29T03:44:51.530Z,16.10
2017-05-29T03:47:19.829Z,16.20
2017-05-29T03:49:48.128Z,16.30
2017-05-29T03:52:16.449Z,16.30
2017-05-29T03:54:44.749Z,16.40
2017-05-29T03:57:13.072Z,16.50
2017-05-29T03:59:41.366Z,16.40
2017-05-29T04:02:09.708Z,16.40
2017-05-29T04:04:38.005Z,16.40
2017-05-29T04:07:06.317Z,16.50
2017-05-29T04:09:34.642Z,16.60
2017-05-29T04:12:02.956Z,16.60
2017-05-29T04:14:31.288Z,16.50
2017-05-29T04:16:59.591Z,16.50
2017-05-29T04:19:27.953Z,16.40
2017-05-29T04:21:56.265Z,16.40
2017-05-29T04:24:24.574Z,16.40
2017-05-29T04:26:52.887Z,16.50
2017-05-29T04:29:21.191Z,16.50
2017-05-29T04:31:49.553Z,16.40
2017-05-29T04:34:17.852Z,16.40
2017-05-29T04:36:46.204Z,16.40
2017-05-29T04:39:14.499Z,16.40
2017-05-29T04:41:42.798Z,16.40
2017-05-29T04:44:11.112Z,16.50
2017-05-29T04:46:39.423Z,16.50
2017-05-29T04:49:07.750Z,16.60
2017-05-29T04:51:36.045Z,16.70
2017-05-29T04:54:04.389Z,16.80
2017-05-29T04:56:32.687Z,16.90
2017-05-29T04:59:00.988Z,16.90
2017-05-29T05:01:29.311Z,16.90
2017-05-29T05:03:57.627Z,16.90
2017-05-29T05:06:25.947Z,17.00
2017-05-29T05:08:54.263Z,17.10
2017-05-29T05:11:22.587Z,17.00
2017-05-29T05:13:50.895Z,17.10
2017-05-29T05:16:19.201Z,17.00
2017-05-29T05:18:47.529Z,17.00
2017-05-29T05:21:15.835Z,17.00
2017-05-29T05:23:44.164Z,17.00
2017-05-29T05:26:12.468Z,17.00
2017-05-29T05:28:40.812Z,17.10
2017-05-29T05:31:09.126Z,17.30
2017-05-29T05:33:37.441Z,17.50
2017-05-29T05:36:04.996Z,17.40
2017-05-29T05:38:33.304Z,17.80
2017-05-29T05:41:01.633Z,17.90
2017-05-29T05:43:29.943Z,18.00
2017-05-29T05:45:58.281Z,18.10
2017-05-29T05:48:26.593Z,18.20
2017-05-29T05:50:54.904Z,18.30
2017-05-29T05:53:23.233Z,18.40
2017-05-29T05:55:51.554Z,18.50
2017-05-29T05:58:19.876Z,18.70
2017-05-29T06:00:48.188Z,18.80
2017-05-29T06:03:16.588Z,18.90
2017-05-29T06:05:44.895Z,19.10
2017-05-29T06:08:13.209Z,19.20
2017-05-29T06:10:41.528Z,19.40
2017-05-29T06:13:09.848Z,19.40
2017-05-29T06:15:38.175Z,19.30
2017-05-29T06:18:06.476Z,19.30
2017-05-29T06:20:34.819Z,19.30
2017-05-29T06:23:03.132Z,19.40
2017-05-29T06:25:31.451Z,19.40
2017-05-29T06:27:59.788Z,19.50
2017-05-29T06:30:28.097Z,19.60
2017-05-29T06:32:56.421Z,19.70
2017-05-29T06:35:24.720Z,19.90
2017-05-29T06:37:53.069Z,20.10
2017-05-29T06:40:21.384Z,20.20
2017-05-29T06:42:49.697Z,20.40
2017-05-29T06:45:18.040Z,20.60
2017-05-29T06:47:46.352Z,20.80
2017-05-29T06:50:14.680Z,20.90
2017-05-29T06:52:42.985Z,21.00
2017-05-29T06:55:11.340Z,21.10
2017-05-29T06:57:39.648Z,21.20
2017-05-29T07:00:07.983Z,21.40
2017-05-29T07:02:36.328Z,21.50
2017-05-29T07:05:04.633Z,21.50
2017-05-29T07:07:33.010Z,21.60
2017-05-29T07:10:01.326Z,21.60
2017-05-29T07:12:29.659Z,21.70
2017-05-29T07:14:58.013Z,21.70
2017-05-29T07:17:26.332Z,21.70
2017-05-29T07:19:54.665Z,21.80
2017-05-29T07:22:22.971Z,22.00
2017-05-29T07:24:51.288Z,22.40
2017-05-29T07:27:19.627Z,22.90
2017-05-29T07:29:47.927Z,23.40
2017-05-29T07:32:16.276Z,23.80
2017-05-29T07:34:44.584Z,24.30
2017-05-29T07:37:12.900Z,24.90
2017-05-29T07:39:41.249Z,25.60
2017-05-29T07:42:09.575Z,26.00
2017-05-29T07:44:37.931Z,26.50
2017-05-29T07:47:06.276Z,26.90
2017-05-29T07:49:34.588Z,27.30
2017-05-29T07:52:02.936Z,27.80
2017-05-29T07:54:31.244Z,28.40
2017-05-29T07:56:59.595Z,28.60
2017-05-29T07:59:27.913Z,28.60
2017-05-29T08:01:56.259Z,28.50
2017-05-29T08:04:24.624Z,28.70
2017-05-29T08:06:52.925Z,28.70
2017-05-29T08:09:21.253Z,28.60
2017-05-29T08:11:49.560Z,28.50
2017-05-29T08:14:17.880Z,28.10
2017-05-29T08:16:46.187Z,27.60
2017-05-29T08:19:14.512Z,27.40
2017-05-29T08:21:42.812Z,27.40
2017-05-29T08:24:11.131Z,27.50
2017-05-29T08:26:39.434Z,27.60
2017-05-29T08:29:07.758Z,27.80
2017-05-29T08:31:36.063Z,28.20
2017-05-29T08:34:04.368Z,28.60
2017-05-29T08:36:32.691Z,28.90
2017-05-29T08:39:00.987Z,29.30
2017-05-29T08:41:29.311Z,29.40
2017-05-29T08:43:57.614Z,29.40
2017-05-29T08:46:25.935Z,29.30
2017-05-29T08:48:54.241Z,29.50
2017-05-29T08:51:22.590Z,29.90
2017-05-29T08:53:50.903Z,30.40
2017-05-29T08:56:19.204Z,30.80
2017-05-29T08:58:47.526Z,31.20
2017-05-29T09:01:15.839Z,31.60
2017-05-29T09:03:44.162Z,31.70
2017-05-29T09:06:12.461Z,31.90
2017-05-29T09:08:40.796Z,32.50
2017-05-29T09:11:09.104Z,32.90
2017-05-29T09:13:37.426Z,33.40
2017-05-29T09:16:05.731Z,33.90
2017-05-29T09:18:34.053Z,34.10
2017-05-29T09:21:02.384Z,34.00
2017-05-29T09:23:30.687Z,34.10
2017-05-29T09:25:59.009Z,34.50
2017-05-29T09:28:27.311Z,34.90
2017-05-29T09:30:55.635Z,35.30
2017-05-29T09:33:23.937Z,35.60
2017-05-29T09:35:52.263Z,35.90
2017-05-29T09:38:20.569Z,36.30
2017-05-29T09:40:49.283Z,36.60
2017-05-29T09:43:17.622Z,36.90
2017-05-29T09:45:45.923Z,37.00
2017-05-29T09:48:14.252Z,36.90
2017-05-29T09:50:41.791Z,36.90
2017-05-29T09:53:10.108Z,37.00
2017-05-29T09:55:38.408Z,37.20
2017-05-29T09:58:06.751Z,37.00
2017-05-29T10:00:35.048Z,37.20
2017-05-29T10:03:03.353Z,37.40
2017-05-29T10:05:31.675Z,37.80
2017-05-29T10:07:59.976Z,38.10
2017-05-29T10:10:27.530Z,38.00
2017-05-29T10:12:55.831Z,38.40
2017-05-29T10:15:24.155Z,38.80
2017-05-29T10:17:52.461Z,39.20
2017-05-29T10:20:20.784Z,39.40
2017-05-29T10:22:49.084Z,38.90
2017-05-29T10:25:17.379Z,38.20
2017-05-29T10:27:45.700Z,37.50
2017-05-29T10:30:13.999Z,37.00
2017-05-29T10:32:42.343Z,36.40
2017-05-29T10:35:10.643Z,36.10
2017-05-29T10:37:38.946Z,36.00
2017-05-29T10:40:07.271Z,36.10
2017-05-29T10:42:35.578Z,36.10
2017-05-29T10:45:03.895Z,35.80
2017-05-29T10:47:32.200Z,35.30
2017-05-29T10:50:00.560Z,35.00
2017-05-29T10:52:28.860Z,35.30
2017-05-29T10:54:57.160Z,35.60
2017-05-29T10:57:25.483Z,36.10
2017-05-29T10:59:53.784Z,36.60
2017-05-29T11:02:22.105Z,36.50
2017-05-29T11:04:50.407Z,36.20
2017-05-29T11:07:18.725Z,36.00
2017-05-29T11:09:47.051Z,35.40
2017-05-29T11:12:15.352Z,35.00
2017-05-29T11:14:43.679Z,34.60
2017-05-29T11:17:11.984Z,34.50
2017-05-29T11:19:40.292Z,34.60
2017-05-29T11:22:08.619Z,34.80
2017-05-29T11:24:36.920Z,35.10
2017-05-29T11:27:05.267Z,34.90
2017-05-29T11:29:33.580Z,34.90
2017-05-29T11:32:01.892Z,35.10
2017-05-29T11:34:30.216Z,35.40
2017-05-29T11:36:58.516Z,35.20
2017-05-29T11:39:26.855Z,35.30
2017-05-29T11:41:55.158Z,35.30
2017-05-29T11:44:23.456Z,35.10
2017-05-29T11:46:51.775Z,35.10
2017-05-29T11:49:20.081Z,35.20
2017-05-29T11:51:48.400Z,35.70
2017-05-29T11:54:16.700Z,35.70
2017-05-29T11:56:45.035Z,35.50
2017-05-29T11:59:13.339Z,35.60
2017-05-29T12:01:41.671Z,36.00
2017-05-29T12:04:09.987Z,36.50
2017-05-29T12:06:38.292Z,36.80
2017-05-29T12:09:06.602Z,37.10
2017-05-29T12:11:34.899Z,36.80
2017-05-29T12:14:03.232Z,36.40
2017-05-29T12:16:31.532Z,36.20
2017-05-29T12:18:59.876Z,36.30
2017-05-29T12:21:28.182Z,36.30
2017-05-29T12:23:56.484Z,36.40
2017-05-29T12:26:24.804Z,36.30
2017-05-29T12:28:52.340Z,36.30
2017-05-29T12:31:20.660Z,36.70
2017-05-29T12:33:48.959Z,36.90
2017-05-29T12:36:17.302Z,36.70
2017-05-29T12:38:45.604Z,36.60
2017-05-29T12:41:13.907Z,36.30
2017-05-29T12:43:42.228Z,36.20
2017-05-29T12:46:10.540Z,36.30
2017-05-29T12:48:38.856Z,36.60
2017-05-29T12:51:07.161Z,36.60
2017-05-29T12:53:35.502Z,36.30
2017-05-29T12:56:03.806Z,36.20
2017-05-29T12:58:32.113Z,36.00
2017-05-29T13:01:00.435Z,35.70
2017-05-29T13:03:28.843Z,35.80
2017-05-29T13:05:57.169Z,35.60
2017-05-29T13:08:25.475Z,35.60
2017-05-29T13:10:53.797Z,36.00
2017-05-29T13:13:22.099Z,36.10
2017-05-29T13:15:50.400Z,35.50
2017-05-29T13:18:18.720Z,35.10
2017-05-29T13:20:47.029Z,34.90
2017-05-29T13:23:15.353Z,34.90
2017-05-29T13:25:43.659Z,34.90
2017-05-29T13:28:12.001Z,34.90
2017-05-29T13:30:40.300Z,34.90
2017-05-29T13:33:08.611Z,34.80
2017-05-29T13:35:36.929Z,34.40
2017-05-29T13:38:05.253Z,34.10
2017-05-29T13:40:33.585Z,33.90
2017-05-29T13:43:01.882Z,33.40
2017-05-29T13:45:30.227Z,33.00
2017-05-29T13:47:58.531Z,32.70
2017-05-29T13:50:26.832Z,32.50
2017-05-29T13:52:55.215Z,32.40
2017-05-29T13:55:23.520Z,32.40
2017-05-29T13:57:51.839Z,32.40
2017-05-29T14:00:20.139Z,32.40
2017-05-29T14:02:48.482Z,32.20
2017-05-29T14:05:16.788Z,32.10
2017-05-29T14:07:45.092Z,31.90
2017-05-29T14:10:13.424Z,31.80
2017-05-29T14:12:41.733Z,31.70
2017-05-29T14:15:10.062Z,31.50
2017-05-29T14:17:38.372Z,31.50
2017-05-29T14:20:06.716Z,31.50
2017-05-29T14:22:35.015Z,31.50
2017-05-29T14:25:03.315Z,31.60
2017-05-29T14:27:31.661Z,31.50
2017-05-29T14:29:59.960Z,31.50
2017-05-29T14:32:28.279Z,31.50
2017-05-29T14:34:56.574Z,31.40
2017-05-29T14:37:24.924Z,31.40
2017-05-29T14:39:53.228Z,31.50
2017-05-29T14:42:21.527Z,31.50
2017-05-29T14:44:49.848Z,31.60
2017-05-29T14:47:18.152Z,31.60
2017-05-29T14:49:46.475Z,31.50
2017-05-29T14:52:14.783Z,31.50
2017-05-29T14:54:43.135Z,31.80
2017-05-29T14:57:11.439Z,32.30
2017-05-29T14:59:39.745Z,32.60
2017-05-29T15:02:08.071Z,32.60
2017-05-29T15:04:36.372Z,32.60
2017-05-29T15:07:04.695Z,32.60
2017-05-29T15:09:33.007Z,32.60
2017-05-29T15:12:01.357Z,32.60
2017-05-29T15:14:29.659Z,32.80
2017-05-29T15:16:57.961Z,33.00
2017-05-29T15:19:26.285Z,33.10
2017-05-29T15:21:54.591Z,33.00
2017-05-29T15:24:22.912Z,32.80
2017-05-29T15:26:51.211Z,32.60
2017-05-29T15:29:19.535Z,32.50
2017-05-29T15:31:47.836Z,32.20
2017-05-29T15:34:16.139Z,31.90
2017-05-29T15:36:44.455Z,31.70
2017-05-29T15:39:12.753Z,31.60
2017-05-29T15:41:41.093Z,31.40
2017-05-29T15:44:09.446Z,31.30
2017-05-29T15:46:37.787Z,31.20
2017-05-29T15:49:06.083Z,31.20
2017-05-29T15:51:34.380Z,30.90
2017-05-29T15:54:02.700Z,30.80
2017-05-29T15:56:30.997Z,30.70
2017-05-29T15:58:59.332Z,30.70
2017-05-29T16:01:27.633Z,30.60
2017-05-29T16:03:55.972Z,30.60
2017-05-29T16:06:24.276Z,30.60
2017-05-29T16:08:52.580Z,30.70
2017-05-29T16:11:20.905Z,30.80
2017-05-29T16:13:49.214Z,31.10
2017-05-29T16:16:17.541Z,31.30
2017-05-29T16:18:45.839Z,31.40
2017-05-29T16:21:14.167Z,31.40
2017-05-29T16:23:42.479Z,31.30
2017-05-29T16:26:10.789Z,31.10
2017-05-29T16:28:39.712Z,30.80
2017-05-29T16:31:08.339Z,30.70
2017-05-29T16:33:36.675Z,30.80
2017-05-29T16:36:04.986Z,30.80
2017-05-29T16:38:33.341Z,30.80
2017-05-29T16:41:01.646Z,30.90
2017-05-29T16:43:29.957Z,31.00
2017-05-29T16:45:58.287Z,31.00
2017-05-29T16:48:26.598Z,31.10
2017-05-29T16:50:54.919Z,31.00
2017-05-29T16:53:23.225Z,30.90
2017-05-29T16:55:51.551Z,30.90
2017-05-29T16:58:19.854Z,30.80
2017-05-29T17:00:48.155Z,30.70
2017-05-29T17:03:16.472Z,30.70
2017-05-29T17:05:46.479Z,30.70
2017-05-29T17:08:14.799Z,30.70
2017-05-29T17:10:43.105Z,30.80
2017-05-29T17:13:11.427Z,30.90
2017-05-29T17:15:39.725Z,30.90
2017-05-29T17:18:08.020Z,30.70
2017-05-29T17:20:36.344Z,30.60
2017-05-29T17:23:04.644Z,30.40
2017-05-29T17:25:32.963Z,30.20
2017-05-29T17:28:01.269Z,30.10
2017-05-29T17:30:29.607Z,30.00
2017-05-29T17:32:57.928Z,29.90
2017-05-29T17:35:26.235Z,29.80
2017-05-29T17:37:54.550Z,29.70
2017-05-29T17:40:22.927Z,29.50
2017-05-29T17:42:51.244Z,29.30
2017-05-29T17:45:19.548Z,29.10
2017-05-29T17:47:47.891Z,29.00
2017-05-29T17:50:16.195Z,28.90
2017-05-29T17:52:44.496Z,28.80
2017-05-29T17:55:12.812Z,28.70
2017-05-29T17:57:41.119Z,28.60
2017-05-29T18:00:09.443Z,28.50
2017-05-29T18:02:37.743Z,28.40
2017-05-29T18:05:06.130Z,28.20
2017-05-29T18:07:34.429Z,28.20
2017-05-29T18:10:02.732Z,28.10
2017-05-29T18:12:31.143Z,28.00
2017-05-29T18:14:59.465Z,27.90
2017-05-29T18:17:27.785Z,27.80
2017-05-29T18:19:57.337Z,27.70
2017-05-29T18:22:25.679Z,27.60
2017-05-29T18:24:54.026Z,27.20
2017-05-29T18:27:22.426Z,26.90
2017-05-29T18:29:50.922Z,26.70
2017-05-29T18:32:19.218Z,26.50
2017-05-29T18:34:48.499Z,26.20
2017-05-29T18:37:16.806Z,26.10
2017-05-29T18:39:45.148Z,26.10
2017-05-29T18:42:13.464Z,26.00
2017-05-29T18:44:41.764Z,26.00
2017-05-29T18:47:11.842Z,25.80
2017-05-29T18:49:40.154Z,25.60
2017-05-29T18:52:08.481Z,25.40
2017-05-29T18:54:36.790Z,25.20
2017-05-29T18:57:05.141Z,25.00
2017-05-29T18:59:33.443Z,24.80
2017-05-29T19:02:01.743Z,24.70
2017-05-29T19:04:30.067Z,24.70
2017-05-29T19:06:58.385Z,24.70
2017-05-29T19:09:26.705Z,24.70
2017-05-29T19:11:55.013Z,24.70
2017-05-29T19:14:23.356Z,24.60
2017-05-29T19:16:51.654Z,24.50
2017-05-29T19:19:19.961Z,24.30
2017-05-29T19:21:48.298Z,24.10
2017-05-29T19:24:16.603Z,23.90
2017-05-29T19:26:44.924Z,23.80
2017-05-29T19:29:13.284Z,23.70
2017-05-29T19:31:41.585Z,23.60
2017-05-29T19:34:09.888Z,23.60
2017-05-29T19:36:38.213Z,23.60
2017-05-29T19:39:06.514Z,23.50
2017-05-29T19:41:34.835Z,23.50
2017-05-29T19:44:03.139Z,23.40
2017-05-29T19:46:31.466Z,23.30
2017-05-29T19:48:59.768Z,23.20
2017-05-29T19:51:28.108Z,23.00
2017-05-29T19:53:56.417Z,22.90
2017-05-29T19:56:24.716Z,22.80
2017-05-29T19:58:53.030Z,22.80
2017-05-29T20:01:21.326Z,22.70
2017-05-29T20:03:49.643Z,22.70
2017-05-29T20:06:17.944Z,22.60
2017-05-29T20:08:46.268Z,22.50
2017-05-29T20:11:14.576Z,22.40
2017-05-29T20:13:42.899Z,22.40
2017-05-29T20:16:11.206Z,22.30
2017-05-29T20:18:39.532Z,22.30
2017-05-29T20:21:07.844Z,22.30
2017-05-29T20:23:36.168Z,22.30
2017-05-29T20:26:04.469Z,22.20
2017-05-29T20:28:32.792Z,22.20
2017-05-29T20:31:01.096Z,22.10
2017-05-29T20:33:29.423Z,22.10
2017-05-29T20:35:57.721Z,22.00
2017-05-29T20:38:26.040Z,21.90
2017-05-29T20:40:54.371Z,21.60
2017-05-29T20:43:22.721Z,21.30
2017-05-29T20:45:51.020Z,21.00
2017-05-29T20:48:19.329Z,21.00
2017-05-29T20:50:47.655Z,21.00
2017-05-29T20:53:15.961Z,21.10
2017-05-29T20:55:44.284Z,21.20
2017-05-29T20:58:12.594Z,21.20
2017-05-29T21:00:40.911Z,21.20
2017-05-29T21:03:09.213Z,21.30
2017-05-29T21:05:37.530Z,21.10
2017-05-29T21:08:05.848Z,21.10
2017-05-29T21:10:34.148Z,21.10
2017-05-29T21:13:02.475Z,21.10
2017-05-29T21:15:30.782Z,20.90
2017-05-29T21:17:59.111Z,20.60
2017-05-29T21:20:27.416Z,20.30
2017-05-29T21:22:55.720Z,20.20
2017-05-29T21:25:24.035Z,20.30
2017-05-29T21:27:52.335Z,20.30
2017-05-29T21:30:20.657Z,20.40
2017-05-29T21:32:48.955Z,20.50
2017-05-29T21:35:17.288Z,20.60
2017-05-29T21:37:45.601Z,20.60
2017-05-29T21:40:13.908Z,20.50
2017-05-29T21:42:42.226Z,20.40
2017-05-29T21:45:10.528Z,20.20
2017-05-29T21:47:38.853Z,20.10
2017-05-29T21:50:07.156Z,20.00
2017-05-29T21:52:35.503Z,20.00
2017-05-29T21:55:03.798Z,20.10
2017-05-29T21:57:32.095Z,20.10
2017-05-29T22:00:00.415Z,20.00
2017-05-29T22:02:28.712Z,19.80
2017-05-29T22:04:57.041Z,19.80
2017-05-29T22:07:25.346Z,19.90
2017-05-29T22:09:53.677Z,19.80
2017-05-29T22:12:21.972Z,19.70
2017-05-29T22:14:50.276Z,19.50
2017-05-29T22:17:18.612Z,19.20
2017-05-29T22:19:46.916Z,19.00
2017-05-29T22:22:15.245Z,19.00
2017-05-29T22:24:43.549Z,19.00
2017-05-29T22:27:11.850Z,19.10
2017-05-29T22:29:40.171Z,19.30
2017-05-29T22:32:08.476Z,19.30
2017-05-29T22:34:36.816Z,19.50
2017-05-29T22:37:05.131Z,19.60
2017-05-29T22:39:33.431Z,19.60
2017-05-29T22:42:01.750Z,19.70
2017-05-29T22:44:30.060Z,19.70
2017-05-29T22:46:58.393Z,19.50
2017-05-29T22:49:26.691Z,19.30
2017-05-29T22:51:55.043Z,19.10
2017-05-29T22:54:23.351Z,19.00
2017-05-29T22:56:51.657Z,19.10
2017-05-29T22:59:19.975Z,19.20
2017-05-29T23:01:48.286Z,19.20
2017-05-29T23:04:16.605Z,18.90
2017-05-29T23:06:44.916Z,18.70
2017-05-29T23:09:13.261Z,18.60
2017-05-29T23:11:41.561Z,18.50
2017-05-29T23:14:09.871Z,18.50
2017-05-29T23:16:38.190Z,18.40
2017-05-29T23:19:06.487Z,18.40
2017-05-29T23:21:34.810Z,18.40
2017-05-29T23:24:03.109Z,18.40
2017-05-29T23:26:31.447Z,18.50
2017-05-29T23:28:59.750Z,18.50
2017-05-29T23:31:28.059Z,18.50
2017-05-29T23:33:56.393Z,18.40
2017-05-29T23:36:24.687Z,18.50
2017-05-29T23:38:53.008Z,18.50
2017-05-29T23:41:21.313Z,18.60
2017-05-29T23:43:49.640Z,18.70
2017-05-29T23:46:17.943Z,18.80
2017-05-29T23:48:46.252Z,18.80
2017-05-29T23:51:14.581Z,18.70
2017-05-29T23:53:42.880Z,18.70
2017-05-29T23:56:11.203Z,18.70
2017-05-29T23:58:39.504Z,18.70
